sensor_id;sensor_type;location;lat;lon;timestamp;temperature;humidity
8676;DHT22;4375;52.486;13.424;2023-03-31T00:00:52;11.20;99.90
8676;DHT22;4375;52.486;13.424;2023-03-31T00:03:18;11.20;99.90
8676;DHT22;4375;52.486;13.424;2023-03-31T00:05:54;11.20;99.90
8676;DHT22;4375;52.486;13.424;2023-03-31T00:08:20;11.20;99.90
8676;DHT22;4375;52.486;13.424;2023-03-31T00:10:46;11.20;99.90
8676;DHT22;4375;52.486;13.424;2023-03-31T00:13:12;11.20;99.90
8676;DHT22;4375;52.486;13.424;2023-03-31T00:15:38;11.20;99.90
8676;DHT22;4375;52.486;13.424;2023-03-31T00:18:04;11.20;99.90
8676;DHT22;4375;52.486;13.424;2023-03-31T00:20:30;11.20;99.90
8676;DHT22;4375;52.486;13.424;2023-03-31T00:23:03;11.20;99.90
8676;DHT22;4375;52.486;13.424;2023-03-31T00:25:37;11.20;99.90
8676;DHT22;4375;52.486;13.424;2023-03-31T00:28:03;11.20;99.90
8676;DHT22;4375;52.486;13.424;2023-03-31T00:30:29;11.10;99.90
8676;DHT22;4375;52.486;13.424;2023-03-31T00:32:54;11.10;99.90
8676;DHT22;4375;52.486;13.424;2023-03-31T00:35:20;11.10;99.90
8676;DHT22;4375;52.486;13.424;2023-03-31T00:37:46;11.20;99.90
8676;DHT22;4375;52.486;13.424;2023-03-31T00:40:12;11.10;99.90
8676;DHT22;4375;52.486;13.424;2023-03-31T00:42:42;11.10;99.90
8676;DHT22;4375;52.486;13.424;2023-03-31T00:50:17;11.10;99.90
8676;DHT22;4375;52.486;13.424;2023-03-31T00:52:46;11.10;99.90
8676;DHT22;4375;52.486;13.424;2023-03-31T00:55:17;11.10;99.90
8676;DHT22;4375;52.486;13.424;2023-03-31T00:57:44;11.10;99.90
8676;DHT22;4375;52.486;13.424;2023-03-31T01:00:12;11.00;99.90
8676;DHT22;4375;52.486;13.424;2023-03-31T01:02:54;10.90;99.90
8676;DHT22;4375;52.486;13.424;2023-03-31T01:08:05;10.90;99.90
8676;DHT22;4375;52.486;13.424;2023-03-31T01:10:34;10.80;99.90
8676;DHT22;4375;52.486;13.424;2023-03-31T01:13:10;10.80;99.90
8676;DHT22;4375;52.486;13.424;2023-03-31T01:15:36;10.80;99.90
8676;DHT22;4375;52.486;13.424;2023-03-31T01:18:06;10.60;99.90
8676;DHT22;4375;52.486;13.424;2023-03-31T01:28:48;10.40;99.90
8676;DHT22;4375;52.486;13.424;2023-03-31T01:42:58;10.30;99.90
8676;DHT22;4375;52.486;13.424;2023-03-31T01:45:59;10.30;99.90
8676;DHT22;4375;52.486;13.424;2023-03-31T01:51:44;10.30;99.90
8676;DHT22;4375;52.486;13.424;2023-03-31T01:57:32;10.40;99.90
8676;DHT22;4375;52.486;13.424;2023-03-31T02:00:10;10.40;99.90
8676;DHT22;4375;52.486;13.424;2023-03-31T02:02:56;10.40;99.90
8676;DHT22;4375;52.486;13.424;2023-03-31T02:05:26;10.40;99.90
8676;DHT22;4375;52.486;13.424;2023-03-31T02:07:55;10.40;99.90
8676;DHT22;4375;52.486;13.424;2023-03-31T02:10:24;10.40;99.90
8676;DHT22;4375;52.486;13.424;2023-03-31T02:12:50;10.40;99.90
8676;DHT22;4375;52.486;13.424;2023-03-31T02:15:24;10.50;99.90
8676;DHT22;4375;52.486;13.424;2023-03-31T02:17:54;10.40;99.90
8676;DHT22;4375;52.486;13.424;2023-03-31T02:20:21;10.40;99.90
8676;DHT22;4375;52.486;13.424;2023-03-31T02:22:53;10.40;99.90
8676;DHT22;4375;52.486;13.424;2023-03-31T02:25:27;10.40;99.90
8676;DHT22;4375;52.486;13.424;2023-03-31T02:27:59;10.50;99.90
8676;DHT22;4375;52.486;13.424;2023-03-31T02:30:40;10.50;99.90
8676;DHT22;4375;52.486;13.424;2023-03-31T02:33:09;10.40;99.90
8676;DHT22;4375;52.486;13.424;2023-03-31T02:35:35;10.40;99.90
8676;DHT22;4375;52.486;13.424;2023-03-31T02:38:01;10.50;99.90
8676;DHT22;4375;52.486;13.424;2023-03-31T02:40:27;10.50;99.90
8676;DHT22;4375;52.486;13.424;2023-03-31T02:42:52;10.50;99.90
8676;DHT22;4375;52.486;13.424;2023-03-31T02:45:41;10.40;99.90
8676;DHT22;4375;52.486;13.424;2023-03-31T02:48:20;10.50;99.90
8676;DHT22;4375;52.486;13.424;2023-03-31T03:15:09;10.50;99.90
8676;DHT22;4375;52.486;13.424;2023-03-31T03:17:45;10.50;99.90
8676;DHT22;4375;52.486;13.424;2023-03-31T03:20:13;10.60;99.90
8676;DHT22;4375;52.486;13.424;2023-03-31T03:22:41;10.60;99.90
8676;DHT22;4375;52.486;13.424;2023-03-31T03:25:09;10.50;99.90
8676;DHT22;4375;52.486;13.424;2023-03-31T03:27:35;10.50;99.90
8676;DHT22;4375;52.486;13.424;2023-03-31T03:30:02;10.50;99.90
8676;DHT22;4375;52.486;13.424;2023-03-31T03:32:29;10.50;99.90
8676;DHT22;4375;52.486;13.424;2023-03-31T03:34:55;10.60;99.90
8676;DHT22;4375;52.486;13.424;2023-03-31T03:37:21;10.60;99.90
8676;DHT22;4375;52.486;13.424;2023-03-31T03:39:46;10.70;99.90
8676;DHT22;4375;52.486;13.424;2023-03-31T03:42:12;10.60;99.90
8676;DHT22;4375;52.486;13.424;2023-03-31T03:44:38;10.70;99.90
8676;DHT22;4375;52.486;13.424;2023-03-31T03:47:03;10.70;99.90
8676;DHT22;4375;52.486;13.424;2023-03-31T03:49:29;10.70;99.90
8676;DHT22;4375;52.486;13.424;2023-03-31T03:51:55;10.70;99.90
8676;DHT22;4375;52.486;13.424;2023-03-31T03:54:20;10.70;99.90
8676;DHT22;4375;52.486;13.424;2023-03-31T03:56:46;10.70;99.90
8676;DHT22;4375;52.486;13.424;2023-03-31T03:59:12;10.60;99.90
8676;DHT22;4375;52.486;13.424;2023-03-31T04:01:38;10.70;99.90
8676;DHT22;4375;52.486;13.424;2023-03-31T04:04:04;10.70;99.90
8676;DHT22;4375;52.486;13.424;2023-03-31T04:06:29;10.70;99.90
8676;DHT22;4375;52.486;13.424;2023-03-31T04:08:55;10.70;99.90
8676;DHT22;4375;52.486;13.424;2023-03-31T04:11:21;10.70;99.90
8676;DHT22;4375;52.486;13.424;2023-03-31T04:13:47;10.70;99.90
8676;DHT22;4375;52.486;13.424;2023-03-31T04:16:13;10.80;99.90
8676;DHT22;4375;52.486;13.424;2023-03-31T04:18:38;10.70;99.90
8676;DHT22;4375;52.486;13.424;2023-03-31T04:21:14;10.70;99.90
8676;DHT22;4375;52.486;13.424;2023-03-31T04:23:47;10.70;99.90
8676;DHT22;4375;52.486;13.424;2023-03-31T04:26:16;10.70;99.90
8676;DHT22;4375;52.486;13.424;2023-03-31T04:28:43;10.60;99.90
8676;DHT22;4375;52.486;13.424;2023-03-31T04:31:12;10.60;99.90
8676;DHT22;4375;52.486;13.424;2023-03-31T04:33:50;10.60;99.90
8676;DHT22;4375;52.486;13.424;2023-03-31T04:36:16;10.60;99.90
8676;DHT22;4375;52.486;13.424;2023-03-31T04:38:49;10.70;99.90
8676;DHT22;4375;52.486;13.424;2023-03-31T04:41:23;10.60;99.90
8676;DHT22;4375;52.486;13.424;2023-03-31T04:43:49;10.60;99.90
8676;DHT22;4375;52.486;13.424;2023-03-31T04:46:15;10.50;99.90
8676;DHT22;4375;52.486;13.424;2023-03-31T04:48:41;10.50;99.90
8676;DHT22;4375;52.486;13.424;2023-03-31T04:51:07;10.40;99.90
8676;DHT22;4375;52.486;13.424;2023-03-31T04:53:33;10.40;99.90
8676;DHT22;4375;52.486;13.424;2023-03-31T04:55:59;10.40;99.90
8676;DHT22;4375;52.486;13.424;2023-03-31T04:58:25;10.40;99.90
8676;DHT22;4375;52.486;13.424;2023-03-31T05:00:51;10.40;99.90
8676;DHT22;4375;52.486;13.424;2023-03-31T05:03:17;10.40;99.90
8676;DHT22;4375;52.486;13.424;2023-03-31T05:05:42;10.40;99.90
8676;DHT22;4375;52.486;13.424;2023-03-31T05:08:08;10.50;99.90
8676;DHT22;4375;52.486;13.424;2023-03-31T05:10:34;10.50;99.90
8676;DHT22;4375;52.486;13.424;2023-03-31T05:13:00;10.40;99.90
8676;DHT22;4375;52.486;13.424;2023-03-31T05:15:26;10.40;99.90
8676;DHT22;4375;52.486;13.424;2023-03-31T05:17:52;10.50;99.90
8676;DHT22;4375;52.486;13.424;2023-03-31T05:20:18;10.50;99.90
8676;DHT22;4375;52.486;13.424;2023-03-31T05:22:45;10.40;99.90
8676;DHT22;4375;52.486;13.424;2023-03-31T05:25:12;10.30;99.90
8676;DHT22;4375;52.486;13.424;2023-03-31T05:27:47;10.30;99.90
8676;DHT22;4375;52.486;13.424;2023-03-31T05:30:13;10.30;99.90
8676;DHT22;4375;52.486;13.424;2023-03-31T05:32:39;10.30;99.90
8676;DHT22;4375;52.486;13.424;2023-03-31T05:35:05;10.40;99.90
8676;DHT22;4375;52.486;13.424;2023-03-31T05:37:31;10.40;99.90
8676;DHT22;4375;52.486;13.424;2023-03-31T05:39:57;10.40;99.90
8676;DHT22;4375;52.486;13.424;2023-03-31T05:42:23;10.40;99.90
8676;DHT22;4375;52.486;13.424;2023-03-31T05:44:49;10.40;99.90
8676;DHT22;4375;52.486;13.424;2023-03-31T05:47:14;10.40;99.90
8676;DHT22;4375;52.486;13.424;2023-03-31T05:49:40;10.40;99.90
8676;DHT22;4375;52.486;13.424;2023-03-31T05:52:07;10.50;99.90
8676;DHT22;4375;52.486;13.424;2023-03-31T05:54:35;10.50;99.90
8676;DHT22;4375;52.486;13.424;2023-03-31T05:57:01;10.70;99.90
8676;DHT22;4375;52.486;13.424;2023-03-31T05:59:27;10.80;99.90
8676;DHT22;4375;52.486;13.424;2023-03-31T06:01:53;11.00;99.90
8676;DHT22;4375;52.486;13.424;2023-03-31T06:04:18;11.10;99.90
8676;DHT22;4375;52.486;13.424;2023-03-31T06:06:44;11.20;99.90
8676;DHT22;4375;52.486;13.424;2023-03-31T06:09:10;11.30;99.90
8676;DHT22;4375;52.486;13.424;2023-03-31T06:11:39;11.20;99.90
8676;DHT22;4375;52.486;13.424;2023-03-31T06:14:04;11.20;99.90
8676;DHT22;4375;52.486;13.424;2023-03-31T06:16:30;11.30;99.90
8676;DHT22;4375;52.486;13.424;2023-03-31T06:18:56;11.30;99.90
8676;DHT22;4375;52.486;13.424;2023-03-31T06:21:22;11.30;99.90
8676;DHT22;4375;52.486;13.424;2023-03-31T06:23:48;11.30;99.90
8676;DHT22;4375;52.486;13.424;2023-03-31T06:26:16;11.20;99.90
8676;DHT22;4375;52.486;13.424;2023-03-31T06:28:43;11.30;99.90
8676;DHT22;4375;52.486;13.424;2023-03-31T06:31:11;11.30;99.90
8676;DHT22;4375;52.486;13.424;2023-03-31T06:33:38;11.20;99.90
8676;DHT22;4375;52.486;13.424;2023-03-31T06:36:05;11.20;99.90
8676;DHT22;4375;52.486;13.424;2023-03-31T06:38:35;11.10;99.90
8676;DHT22;4375;52.486;13.424;2023-03-31T06:41:02;11.10;99.90
8676;DHT22;4375;52.486;13.424;2023-03-31T06:43:28;11.00;99.90
8676;DHT22;4375;52.486;13.424;2023-03-31T06:45:54;11.00;99.90
8676;DHT22;4375;52.486;13.424;2023-03-31T06:48:22;11.00;99.90
8676;DHT22;4375;52.486;13.424;2023-03-31T06:50:48;11.00;99.90
8676;DHT22;4375;52.486;13.424;2023-03-31T06:53:14;11.00;99.90
8676;DHT22;4375;52.486;13.424;2023-03-31T06:55:39;11.10;99.90
8676;DHT22;4375;52.486;13.424;2023-03-31T06:58:05;11.10;99.90
8676;DHT22;4375;52.486;13.424;2023-03-31T07:00:32;11.30;99.90
8676;DHT22;4375;52.486;13.424;2023-03-31T07:02:58;11.20;99.90
8676;DHT22;4375;52.486;13.424;2023-03-31T07:05:25;11.30;99.90
8676;DHT22;4375;52.486;13.424;2023-03-31T07:07:53;11.40;99.90
8676;DHT22;4375;52.486;13.424;2023-03-31T07:10:19;11.50;99.90
8676;DHT22;4375;52.486;13.424;2023-03-31T07:12:45;11.60;99.90
8676;DHT22;4375;52.486;13.424;2023-03-31T07:15:10;11.80;99.90
8676;DHT22;4375;52.486;13.424;2023-03-31T07:20:15;12.10;99.90
8676;DHT22;4375;52.486;13.424;2023-03-31T07:22:46;12.20;99.90
8676;DHT22;4375;52.486;13.424;2023-03-31T07:25:15;12.20;99.90
8676;DHT22;4375;52.486;13.424;2023-03-31T07:27:41;12.20;99.90
8676;DHT22;4375;52.486;13.424;2023-03-31T07:30:18;12.40;99.90
8676;DHT22;4375;52.486;13.424;2023-03-31T07:32:49;12.50;99.90
8676;DHT22;4375;52.486;13.424;2023-03-31T07:35:16;12.60;99.90
8676;DHT22;4375;52.486;13.424;2023-03-31T07:37:44;12.80;99.90
8676;DHT22;4375;52.486;13.424;2023-03-31T07:40:12;13.00;99.90
8676;DHT22;4375;52.486;13.424;2023-03-31T07:42:40;13.10;99.90
8676;DHT22;4375;52.486;13.424;2023-03-31T07:45:07;13.20;99.90
8676;DHT22;4375;52.486;13.424;2023-03-31T07:47:33;13.40;99.90
8676;DHT22;4375;52.486;13.424;2023-03-31T07:49:59;13.40;99.90
8676;DHT22;4375;52.486;13.424;2023-03-31T07:52:25;13.40;99.90
8676;DHT22;4375;52.486;13.424;2023-03-31T07:54:51;13.30;99.90
8676;DHT22;4375;52.486;13.424;2023-03-31T07:57:17;13.40;99.90
8676;DHT22;4375;52.486;13.424;2023-03-31T07:59:45;13.40;99.90
8676;DHT22;4375;52.486;13.424;2023-03-31T08:02:12;13.60;99.90
8676;DHT22;4375;52.486;13.424;2023-03-31T08:04:38;13.70;99.90
8676;DHT22;4375;52.486;13.424;2023-03-31T08:07:11;13.90;99.90
8676;DHT22;4375;52.486;13.424;2023-03-31T08:09:37;14.10;99.90
8676;DHT22;4375;52.486;13.424;2023-03-31T08:12:04;14.40;99.90
8676;DHT22;4375;52.486;13.424;2023-03-31T08:14:30;14.50;99.90
8676;DHT22;4375;52.486;13.424;2023-03-31T08:16:56;14.50;99.90
8676;DHT22;4375;52.486;13.424;2023-03-31T08:19:23;14.60;99.90
8676;DHT22;4375;52.486;13.424;2023-03-31T08:21:48;14.60;99.90
8676;DHT22;4375;52.486;13.424;2023-03-31T08:24:20;14.60;99.90
8676;DHT22;4375;52.486;13.424;2023-03-31T08:26:46;14.60;99.90
8676;DHT22;4375;52.486;13.424;2023-03-31T08:29:12;14.60;99.90
8676;DHT22;4375;52.486;13.424;2023-03-31T08:31:38;14.70;99.90
8676;DHT22;4375;52.486;13.424;2023-03-31T08:34:04;14.90;99.90
8676;DHT22;4375;52.486;13.424;2023-03-31T08:36:31;15.30;99.90
8676;DHT22;4375;52.486;13.424;2023-03-31T08:38:57;15.50;99.90
8676;DHT22;4375;52.486;13.424;2023-03-31T08:41:29;15.70;99.90
8676;DHT22;4375;52.486;13.424;2023-03-31T08:43:58;15.90;99.90
8676;DHT22;4375;52.486;13.424;2023-03-31T08:46:30;16.80;99.90
8676;DHT22;4375;52.486;13.424;2023-03-31T08:48:58;17.20;99.90
8676;DHT22;4375;52.486;13.424;2023-03-31T08:51:31;17.30;99.90
8676;DHT22;4375;52.486;13.424;2023-03-31T08:54:06;17.20;99.90
8676;DHT22;4375;52.486;13.424;2023-03-31T08:56:40;16.70;99.90
8676;DHT22;4375;52.486;13.424;2023-03-31T09:16:25;15.20;99.90
8676;DHT22;4375;52.486;13.424;2023-03-31T09:19:12;15.20;99.90
8676;DHT22;4375;52.486;13.424;2023-03-31T09:21:47;15.40;99.90
8676;DHT22;4375;52.486;13.424;2023-03-31T09:24:22;15.70;99.90
8676;DHT22;4375;52.486;13.424;2023-03-31T09:27:02;15.90;99.90
8676;DHT22;4375;52.486;13.424;2023-03-31T09:29:42;16.10;99.90
8676;DHT22;4375;52.486;13.424;2023-03-31T09:32:29;16.50;99.90
8676;DHT22;4375;52.486;13.424;2023-03-31T09:34:59;16.60;99.90
8676;DHT22;4375;52.486;13.424;2023-03-31T09:37:29;16.30;99.90
8676;DHT22;4375;52.486;13.424;2023-03-31T09:39:59;16.20;99.90
8676;DHT22;4375;52.486;13.424;2023-03-31T09:42:35;16.20;99.90
8676;DHT22;4375;52.486;13.424;2023-03-31T09:45:02;16.30;99.90
8676;DHT22;4375;52.486;13.424;2023-03-31T09:47:36;15.90;99.90
8676;DHT22;4375;52.486;13.424;2023-03-31T09:50:04;15.90;99.90
8676;DHT22;4375;52.486;13.424;2023-03-31T09:52:43;15.50;99.90
8676;DHT22;4375;52.486;13.424;2023-03-31T09:55:39;15.30;99.90
8676;DHT22;4375;52.486;13.424;2023-03-31T09:58:16;15.30;99.90
8676;DHT22;4375;52.486;13.424;2023-03-31T10:00:59;15.50;99.90
8676;DHT22;4375;52.486;13.424;2023-03-31T10:03:26;15.70;99.90
8676;DHT22;4375;52.486;13.424;2023-03-31T10:05:55;16.10;99.90
8676;DHT22;4375;52.486;13.424;2023-03-31T10:08:40;16.20;99.90
8676;DHT22;4375;52.486;13.424;2023-03-31T10:11:11;15.70;99.90
8676;DHT22;4375;52.486;13.424;2023-03-31T10:14:13;15.70;99.90
8676;DHT22;4375;52.486;13.424;2023-03-31T10:17:43;15.30;99.90
8676;DHT22;4375;52.486;13.424;2023-03-31T10:19:58;15.20;99.90
8676;DHT22;4375;52.486;13.424;2023-03-31T10:22:28;15.00;99.90
8676;DHT22;4375;52.486;13.424;2023-03-31T10:25:08;15.00;99.90
8676;DHT22;4375;52.486;13.424;2023-03-31T10:27:38;15.00;99.90
8676;DHT22;4375;52.486;13.424;2023-03-31T10:30:09;15.00;99.90
8676;DHT22;4375;52.486;13.424;2023-03-31T10:32:40;14.90;99.90
8676;DHT22;4375;52.486;13.424;2023-03-31T10:35:34;15.00;99.90
8676;DHT22;4375;52.486;13.424;2023-03-31T10:38:09;15.10;99.90
8676;DHT22;4375;52.486;13.424;2023-03-31T10:40:36;15.10;99.90
8676;DHT22;4375;52.486;13.424;2023-03-31T10:43:17;15.30;99.90
8676;DHT22;4375;52.486;13.424;2023-03-31T10:46:02;15.30;99.90
8676;DHT22;4375;52.486;13.424;2023-03-31T10:51:59;15.30;99.90
8676;DHT22;4375;52.486;13.424;2023-03-31T10:54:37;15.40;99.90
8676;DHT22;4375;52.486;13.424;2023-03-31T10:57:04;15.30;99.90
8676;DHT22;4375;52.486;13.424;2023-03-31T11:00:11;15.30;99.90
8676;DHT22;4375;52.486;13.424;2023-03-31T11:03:02;15.00;99.90
8676;DHT22;4375;52.486;13.424;2023-03-31T11:05:51;14.90;99.90
8676;DHT22;4375;52.486;13.424;2023-03-31T11:08:53;14.70;99.90
8676;DHT22;4375;52.486;13.424;2023-03-31T11:14:13;14.70;99.90
8676;DHT22;4375;52.486;13.424;2023-03-31T11:16:56;14.80;99.90
8676;DHT22;4375;52.486;13.424;2023-03-31T11:19:37;15.00;99.90
8676;DHT22;4375;52.486;13.424;2023-03-31T11:22:34;15.10;99.90
8676;DHT22;4375;52.486;13.424;2023-03-31T11:28:26;15.20;99.90
8676;DHT22;4375;52.486;13.424;2023-03-31T11:36:38;14.80;99.90
8676;DHT22;4375;52.486;13.424;2023-03-31T11:41:46;15.20;99.90
8676;DHT22;4375;52.486;13.424;2023-03-31T11:44:15;15.40;99.90
8676;DHT22;4375;52.486;13.424;2023-03-31T11:46:55;15.20;99.90
8676;DHT22;4375;52.486;13.424;2023-03-31T11:49:30;15.20;99.90
8676;DHT22;4375;52.486;13.424;2023-03-31T11:54:59;15.00;99.90
8676;DHT22;4375;52.486;13.424;2023-03-31T12:00:18;15.30;99.90
8676;DHT22;4375;52.486;13.424;2023-03-31T12:02:53;15.50;99.90
8676;DHT22;4375;52.486;13.424;2023-03-31T12:05:24;15.50;99.90
8676;DHT22;4375;52.486;13.424;2023-03-31T12:08:07;15.30;99.90
8676;DHT22;4375;52.486;13.424;2023-03-31T12:10:59;15.20;99.90
8676;DHT22;4375;52.486;13.424;2023-03-31T12:13:35;15.10;99.90
8676;DHT22;4375;52.486;13.424;2023-03-31T12:16:13;15.00;99.90
8676;DHT22;4375;52.486;13.424;2023-03-31T12:19:20;15.00;99.90
8676;DHT22;4375;52.486;13.424;2023-03-31T12:21:54;14.80;99.90
8676;DHT22;4375;52.486;13.424;2023-03-31T12:24:21;14.80;99.90
8676;DHT22;4375;52.486;13.424;2023-03-31T12:29:47;15.10;99.90
8676;DHT22;4375;52.486;13.424;2023-03-31T12:32:19;15.40;99.90
8676;DHT22;4375;52.486;13.424;2023-03-31T12:34:53;15.50;99.90
8676;DHT22;4375;52.486;13.424;2023-03-31T12:40:34;15.20;99.90
8676;DHT22;4375;52.486;13.424;2023-03-31T12:48:53;14.20;99.90
8676;DHT22;4375;52.486;13.424;2023-03-31T12:59:32;12.70;99.90
8676;DHT22;4375;52.486;13.424;2023-03-31T13:04:40;12.40;99.90
8676;DHT22;4375;52.486;13.424;2023-03-31T13:10:37;12.30;99.90
8676;DHT22;4375;52.486;13.424;2023-03-31T13:15:24;12.50;99.90
8676;DHT22;4375;52.486;13.424;2023-03-31T13:18:04;12.60;99.90
8676;DHT22;4375;52.486;13.424;2023-03-31T13:20:38;12.50;99.90
8676;DHT22;4375;52.486;13.424;2023-03-31T13:25:42;12.70;99.90
8676;DHT22;4375;52.486;13.424;2023-03-31T13:33:19;12.20;99.90
8676;DHT22;4375;52.486;13.424;2023-03-31T13:35:49;12.20;99.90
8676;DHT22;4375;52.486;13.424;2023-03-31T13:47:27;12.00;99.90
8676;DHT22;4375;52.486;13.424;2023-03-31T13:53:01;11.90;99.90
8676;DHT22;4375;52.486;13.424;2023-03-31T13:58:21;11.80;99.90
8676;DHT22;4375;52.486;13.424;2023-03-31T14:09:35;11.70;99.90
8676;DHT22;4375;52.486;13.424;2023-03-31T14:14:44;11.80;99.90
8676;DHT22;4375;52.486;13.424;2023-03-31T14:17:10;11.80;99.90
8676;DHT22;4375;52.486;13.424;2023-03-31T14:22:45;11.70;99.90
8676;DHT22;4375;52.486;13.424;2023-03-31T14:36:31;11.60;99.90
8676;DHT22;4375;52.486;13.424;2023-03-31T14:39:04;11.60;99.90
8676;DHT22;4375;52.486;13.424;2023-03-31T14:41:31;11.70;99.90
8676;DHT22;4375;52.486;13.424;2023-03-31T14:44:03;11.60;99.90
8676;DHT22;4375;52.486;13.424;2023-03-31T14:46:30;11.60;99.90
8676;DHT22;4375;52.486;13.424;2023-03-31T14:49:14;11.60;99.90
8676;DHT22;4375;52.486;13.424;2023-03-31T14:51:44;11.60;99.90
8676;DHT22;4375;52.486;13.424;2023-03-31T14:54:18;11.50;99.90
8676;DHT22;4375;52.486;13.424;2023-03-31T14:56:55;11.70;99.90
8676;DHT22;4375;52.486;13.424;2023-03-31T14:59:28;11.70;99.90
8676;DHT22;4375;52.486;13.424;2023-03-31T15:01:59;11.60;99.90
8676;DHT22;4375;52.486;13.424;2023-03-31T15:04:29;11.60;99.90
8676;DHT22;4375;52.486;13.424;2023-03-31T15:06:58;11.60;99.90
8676;DHT22;4375;52.486;13.424;2023-03-31T15:09:33;11.60;99.90
8676;DHT22;4375;52.486;13.424;2023-03-31T15:12:02;11.60;99.90
8676;DHT22;4375;52.486;13.424;2023-03-31T15:14:35;11.70;99.90
8676;DHT22;4375;52.486;13.424;2023-03-31T15:17:03;11.60;99.90
8676;DHT22;4375;52.486;13.424;2023-03-31T15:19:33;11.60;99.90
8676;DHT22;4375;52.486;13.424;2023-03-31T15:22:16;11.60;99.90
8676;DHT22;4375;52.486;13.424;2023-03-31T15:24:48;11.70;99.90
8676;DHT22;4375;52.486;13.424;2023-03-31T15:27:19;11.70;99.90
8676;DHT22;4375;52.486;13.424;2023-03-31T15:29:49;11.70;99.90
8676;DHT22;4375;52.486;13.424;2023-03-31T15:34:53;11.70;99.90
8676;DHT22;4375;52.486;13.424;2023-03-31T15:37:25;11.60;99.90
8676;DHT22;4375;52.486;13.424;2023-03-31T15:39:58;11.60;99.90
8676;DHT22;4375;52.486;13.424;2023-03-31T15:42:33;11.60;99.90
8676;DHT22;4375;52.486;13.424;2023-03-31T15:47:48;11.80;99.90
8676;DHT22;4375;52.486;13.424;2023-03-31T15:50:22;11.80;99.90
8676;DHT22;4375;52.486;13.424;2023-03-31T15:52:53;11.60;99.90
8676;DHT22;4375;52.486;13.424;2023-03-31T15:55:26;11.70;99.90
8676;DHT22;4375;52.486;13.424;2023-03-31T15:57:56;11.60;99.90
8676;DHT22;4375;52.486;13.424;2023-03-31T16:00:50;11.50;99.90
8676;DHT22;4375;52.486;13.424;2023-03-31T16:03:27;11.50;99.90
8676;DHT22;4375;52.486;13.424;2023-03-31T16:06:18;11.50;99.90
8676;DHT22;4375;52.486;13.424;2023-03-31T16:08:50;11.50;99.90
8676;DHT22;4375;52.486;13.424;2023-03-31T16:12:02;11.60;99.90
8676;DHT22;4375;52.486;13.424;2023-03-31T16:14:17;11.70;99.90
8676;DHT22;4375;52.486;13.424;2023-03-31T16:16:47;11.60;99.90
8676;DHT22;4375;52.486;13.424;2023-03-31T16:19:14;11.60;99.90
8676;DHT22;4375;52.486;13.424;2023-03-31T16:21:44;11.60;99.90
8676;DHT22;4375;52.486;13.424;2023-03-31T16:24:12;11.50;99.90
8676;DHT22;4375;52.486;13.424;2023-03-31T16:26:39;11.50;99.90
8676;DHT22;4375;52.486;13.424;2023-03-31T16:29:05;11.50;99.90
8676;DHT22;4375;52.486;13.424;2023-03-31T16:31:34;11.40;99.90
8676;DHT22;4375;52.486;13.424;2023-03-31T16:34:03;11.40;99.90
8676;DHT22;4375;52.486;13.424;2023-03-31T16:36:29;11.40;99.90
8676;DHT22;4375;52.486;13.424;2023-03-31T16:38:55;11.30;99.90
8676;DHT22;4375;52.486;13.424;2023-03-31T16:41:23;11.20;99.90
8676;DHT22;4375;52.486;13.424;2023-03-31T16:43:49;11.30;99.90
8676;DHT22;4375;52.486;13.424;2023-03-31T16:46:18;11.20;99.90
8676;DHT22;4375;52.486;13.424;2023-03-31T16:48:44;11.30;99.90
8676;DHT22;4375;52.486;13.424;2023-03-31T16:51:10;11.40;99.90
8676;DHT22;4375;52.486;13.424;2023-03-31T16:53:36;11.30;99.90
8676;DHT22;4375;52.486;13.424;2023-03-31T16:56:03;11.30;99.90
8676;DHT22;4375;52.486;13.424;2023-03-31T16:58:29;11.30;99.90
8676;DHT22;4375;52.486;13.424;2023-03-31T17:00:56;11.30;99.90
8676;DHT22;4375;52.486;13.424;2023-03-31T17:03:22;11.30;99.90
8676;DHT22;4375;52.486;13.424;2023-03-31T17:05:52;11.30;99.90
8676;DHT22;4375;52.486;13.424;2023-03-31T17:08:20;11.20;99.90
8676;DHT22;4375;52.486;13.424;2023-03-31T17:13:16;11.20;99.90
8676;DHT22;4375;52.486;13.424;2023-03-31T17:15:42;11.20;99.90
8676;DHT22;4375;52.486;13.424;2023-03-31T17:18:07;11.30;99.90
8676;DHT22;4375;52.486;13.424;2023-03-31T17:20:33;11.30;99.90
8676;DHT22;4375;52.486;13.424;2023-03-31T17:22:59;11.20;99.90
8676;DHT22;4375;52.486;13.424;2023-03-31T17:25:25;11.10;99.90
8676;DHT22;4375;52.486;13.424;2023-03-31T17:27:51;11.30;99.90
8676;DHT22;4375;52.486;13.424;2023-03-31T17:30:17;11.20;99.90
8676;DHT22;4375;52.486;13.424;2023-03-31T17:32:43;11.20;99.90
8676;DHT22;4375;52.486;13.424;2023-03-31T17:35:09;11.20;99.90
8676;DHT22;4375;52.486;13.424;2023-03-31T17:37:35;11.30;99.90
8676;DHT22;4375;52.486;13.424;2023-03-31T17:40:02;11.20;99.90
8676;DHT22;4375;52.486;13.424;2023-03-31T17:42:29;11.10;99.90
8676;DHT22;4375;52.486;13.424;2023-03-31T17:44:55;11.00;99.90
8676;DHT22;4375;52.486;13.424;2023-03-31T17:47:23;11.10;99.90
8676;DHT22;4375;52.486;13.424;2023-03-31T17:49:48;11.10;99.90
8676;DHT22;4375;52.486;13.424;2023-03-31T17:52:14;11.10;99.90
8676;DHT22;4375;52.486;13.424;2023-03-31T17:54:40;11.10;99.90
8676;DHT22;4375;52.486;13.424;2023-03-31T17:57:07;11.00;99.90
8676;DHT22;4375;52.486;13.424;2023-03-31T17:59:32;11.00;99.90
8676;DHT22;4375;52.486;13.424;2023-03-31T18:01:58;11.00;99.90
8676;DHT22;4375;52.486;13.424;2023-03-31T18:04:25;11.10;99.90
8676;DHT22;4375;52.486;13.424;2023-03-31T18:06:51;11.10;99.90
8676;DHT22;4375;52.486;13.424;2023-03-31T18:09:17;11.20;99.90
8676;DHT22;4375;52.486;13.424;2023-03-31T18:11:43;11.10;99.90
8676;DHT22;4375;52.486;13.424;2023-03-31T18:14:08;11.10;99.90
8676;DHT22;4375;52.486;13.424;2023-03-31T18:16:34;11.20;99.90
8676;DHT22;4375;52.486;13.424;2023-03-31T18:19:01;11.10;99.90
8676;DHT22;4375;52.486;13.424;2023-03-31T18:21:27;11.10;99.90
8676;DHT22;4375;52.486;13.424;2023-03-31T18:23:53;11.00;99.90
8676;DHT22;4375;52.486;13.424;2023-03-31T18:26:23;11.10;99.90
8676;DHT22;4375;52.486;13.424;2023-03-31T18:28:50;11.10;99.90
8676;DHT22;4375;52.486;13.424;2023-03-31T18:31:16;11.00;99.90
8676;DHT22;4375;52.486;13.424;2023-03-31T18:33:42;11.00;99.90
8676;DHT22;4375;52.486;13.424;2023-03-31T18:36:17;11.00;99.90
8676;DHT22;4375;52.486;13.424;2023-03-31T18:38:44;11.00;99.90
8676;DHT22;4375;52.486;13.424;2023-03-31T18:41:12;11.00;99.90
8676;DHT22;4375;52.486;13.424;2023-03-31T18:43:38;11.10;99.90
8676;DHT22;4375;52.486;13.424;2023-03-31T18:46:03;11.20;99.90
8676;DHT22;4375;52.486;13.424;2023-03-31T18:50:58;11.10;99.90
8676;DHT22;4375;52.486;13.424;2023-03-31T18:53:24;11.10;99.90
8676;DHT22;4375;52.486;13.424;2023-03-31T18:55:51;11.00;99.90
8676;DHT22;4375;52.486;13.424;2023-03-31T18:58:18;11.00;99.90
8676;DHT22;4375;52.486;13.424;2023-03-31T19:00:44;10.90;99.90
8676;DHT22;4375;52.486;13.424;2023-03-31T19:03:10;10.90;99.90
8676;DHT22;4375;52.486;13.424;2023-03-31T19:05:36;11.00;99.90
8676;DHT22;4375;52.486;13.424;2023-03-31T19:08:03;11.00;99.90
8676;DHT22;4375;52.486;13.424;2023-03-31T19:10:29;11.10;99.90
8676;DHT22;4375;52.486;13.424;2023-03-31T19:12:55;11.00;99.90